createdAt,value
2017-12-13T00:00:30.857Z,2.83
2017-12-13T00:01:11.582Z,2.84
2017-12-13T00:01:52.464Z,2.84
2017-12-13T00:02:32.862Z,2.92
2017-12-13T00:03:13.488Z,2.89
2017-12-13T00:03:54.044Z,2.8
2017-12-13T00:04:34.775Z,2.9
2017-12-13T00:05:15.339Z,2.92
2017-12-13T00:05:59.752Z,2.87
2017-12-13T00:06:40.404Z,2.89
2017-12-13T00:07:20.901Z,2.89
2017-12-13T00:08:01.526Z,2.92
2017-12-13T00:08:44.905Z,2.9
2017-12-13T00:09:27.470Z,2.84
2017-12-13T00:10:10.850Z,2.87
2017-12-13T00:10:51.432Z,2.87
2017-12-13T00:11:32.076Z,2.8
2017-12-13T00:12:12.685Z,2.74
2017-12-13T00:12:53.269Z,2.86
2017-12-13T00:13:33.828Z,2.86
2017-12-13T00:14:14.405Z,2.79
2017-12-13T00:14:55.102Z,2.81
2017-12-13T00:15:35.665Z,2.89
2017-12-13T00:16:16.217Z,2.9
2017-12-13T00:16:56.691Z,2.86
2017-12-13T00:17:37.210Z,2.84
2017-12-13T00:18:17.760Z,2.77
2017-12-13T00:18:58.982Z,2.79
2017-12-13T00:19:39.672Z,2.71
2017-12-13T00:20:20.218Z,2.71
2017-12-13T00:21:00.881Z,2.59
2017-12-13T00:21:41.564Z,2.66
2017-12-13T00:22:22.040Z,2.61
2017-12-13T00:23:02.739Z,2.5
2017-12-13T00:23:43.283Z,2.53
2017-12-13T00:24:23.906Z,2.53
2017-12-13T00:25:08.171Z,2.43
2017-12-13T00:25:48.083Z,2.4
2017-12-13T00:26:28.683Z,2.45
2017-12-13T00:27:09.291Z,2.38
2017-12-13T00:27:49.923Z,2.43
2017-12-13T00:28:30.428Z,2.38
2017-12-13T00:29:12.327Z,2.43
2017-12-13T00:29:55.275Z,2.36
2017-12-13T00:30:35.860Z,2.37
2017-12-13T00:31:16.438Z,2.38
2017-12-13T00:31:56.984Z,2.37
2017-12-13T00:32:37.593Z,2.43
2017-12-13T00:33:21.558Z,2.41
2017-12-13T00:34:02.097Z,2.48
2017-12-13T00:34:42.666Z,2.48
2017-12-13T00:35:23.167Z,2.53
2017-12-13T00:36:03.795Z,2.51
2017-12-13T00:36:44.288Z,2.65
2017-12-13T00:37:25.123Z,2.63
2017-12-13T00:38:05.709Z,2.65
2017-12-13T00:38:46.365Z,2.68
2017-12-13T00:39:26.911Z,2.63
2017-12-13T00:40:07.484Z,2.66
2017-12-13T00:40:48.082Z,2.73
2017-12-13T00:41:28.711Z,2.79
2017-12-13T00:42:10.890Z,2.77
2017-12-13T00:42:51.507Z,2.79
2017-12-13T00:43:31.943Z,2.8
2017-12-13T00:44:13.114Z,2.8
2017-12-13T00:44:53.693Z,2.8
2017-12-13T00:45:37.274Z,2.94
2017-12-13T00:46:17.773Z,2.95
2017-12-13T00:46:58.433Z,3.02
2017-12-13T00:47:38.953Z,2.99
2017-12-13T00:48:22.841Z,3.07
2017-12-13T00:49:03.494Z,3.05
2017-12-13T00:49:44.119Z,3.02
2017-12-13T00:50:24.861Z,2.92
2017-12-13T00:51:05.371Z,3.1
2017-12-13T00:51:45.867Z,3.15
2017-12-13T00:52:28.878Z,3.08
2017-12-13T00:53:09.443Z,3.08
2017-12-13T00:53:50.065Z,3.08
2017-12-13T00:54:32.358Z,3.08
2017-12-13T00:55:12.994Z,3.15
2017-12-13T00:55:53.572Z,3.16
2017-12-13T00:56:34.199Z,3.22
2017-12-13T00:57:14.885Z,3.33
2017-12-13T00:57:55.507Z,3.19
2017-12-13T00:58:36.003Z,3.16
2017-12-13T00:59:16.590Z,3.13
2017-12-13T00:59:57.124Z,3.08
2017-12-13T01:00:37.717Z,3.02
2017-12-13T01:01:19.916Z,3.04
2017-12-13T01:02:00.535Z,3.08
2017-12-13T01:02:41.125Z,3.1
2017-12-13T01:03:23.456Z,3.13
2017-12-13T01:04:03.946Z,3.19
2017-12-13T01:04:46.185Z,3.15
2017-12-13T01:05:26.718Z,3.23
2017-12-13T01:06:07.290Z,3.2
2017-12-13T01:06:47.935Z,3.22
2017-12-13T01:07:32.191Z,3.19
2017-12-13T01:08:12.727Z,3.16
2017-12-13T01:08:53.361Z,3.1
2017-12-13T01:09:34.002Z,3.05
2017-12-13T01:10:14.476Z,3.08
2017-12-13T01:10:54.964Z,3.08
2017-12-13T01:11:38.844Z,3.17
2017-12-13T01:12:19.568Z,3.19
2017-12-13T01:13:00.138Z,3.12
2017-12-13T01:13:40.697Z,3.15
2017-12-13T01:14:21.286Z,3.12
2017-12-13T01:15:01.896Z,3.12
2017-12-13T01:15:42.403Z,3.15
2017-12-13T01:16:23.026Z,3.16
2017-12-13T01:17:03.635Z,3.2
2017-12-13T01:17:44.133Z,3.28
2017-12-13T01:18:24.758Z,3.22
2017-12-13T01:19:05.406Z,3.12
2017-12-13T01:19:48.518Z,3.04
2017-12-13T01:20:31.246Z,2.97
2017-12-13T01:21:11.910Z,2.97
2017-12-13T01:21:52.682Z,2.9
2017-12-13T01:22:33.262Z,2.95
2017-12-13T01:23:18.044Z,2.98
2017-12-13T01:23:58.724Z,2.95
2017-12-13T01:24:39.230Z,2.99
2017-12-13T01:25:19.872Z,2.99
2017-12-13T01:26:00.465Z,3.02
2017-12-13T01:26:44.327Z,2.97
2017-12-13T01:27:24.831Z,3.1
2017-12-13T01:28:05.461Z,3.1
2017-12-13T01:28:46.083Z,2.99
2017-12-13T01:29:26.728Z,2.98
2017-12-13T01:30:07.172Z,2.81
2017-12-13T01:30:47.874Z,2.86
2017-12-13T01:31:28.476Z,2.89
2017-12-13T01:32:08.923Z,2.8
2017-12-13T01:32:49.584Z,2.86
2017-12-13T01:33:30.301Z,2.73
2017-12-13T01:34:10.852Z,2.76
2017-12-13T01:34:51.374Z,2.69
2017-12-13T01:35:32.090Z,2.69
2017-12-13T01:36:12.571Z,2.65
2017-12-13T01:36:56.117Z,2.76
2017-12-13T01:37:37.778Z,2.77
2017-12-13T01:38:18.401Z,2.69
2017-12-13T01:38:58.987Z,2.65
2017-12-13T01:39:39.483Z,2.56
2017-12-13T01:40:23.833Z,2.48
2017-12-13T01:41:03.296Z,2.5
2017-12-13T01:41:44.445Z,2.66
2017-12-13T01:42:25.158Z,2.48
2017-12-13T01:43:05.704Z,2.5
2017-12-13T01:43:46.284Z,2.51
2017-12-13T01:44:26.769Z,2.47
2017-12-13T01:45:07.314Z,2.5
2017-12-13T01:45:51.212Z,2.53
2017-12-13T01:46:31.776Z,2.55
2017-12-13T01:47:12.371Z,2.51
2017-12-13T01:47:52.941Z,2.48
2017-12-13T01:48:33.528Z,2.37
2017-12-13T01:49:14.110Z,2.38
2017-12-13T01:49:54.545Z,2.33
2017-12-13T01:50:35.120Z,2.3
2017-12-13T01:51:15.756Z,2.33
2017-12-13T01:51:56.438Z,2.3
2017-12-13T01:52:37.085Z,2.29
2017-12-13T01:53:20.279Z,2.23
2017-12-13T01:54:03.943Z,2.29
2017-12-13T01:54:44.622Z,2.32
2017-12-13T01:55:25.237Z,2.38
2017-12-13T01:56:05.733Z,2.37
2017-12-13T01:56:49.959Z,2.43
2017-12-13T01:57:30.639Z,2.44
2017-12-13T01:58:11.239Z,2.51
2017-12-13T01:58:51.841Z,2.45
2017-12-13T01:59:32.473Z,2.4
2017-12-13T02:00:13.041Z,2.38
2017-12-13T02:00:56.846Z,2.44
2017-12-13T02:01:37.725Z,2.38
2017-12-13T02:02:18.175Z,2.38
2017-12-13T02:02:58.676Z,2.37
2017-12-13T02:03:39.323Z,2.25
2017-12-13T02:04:19.789Z,2.22
2017-12-13T02:05:00.447Z,2.18
2017-12-13T02:05:41.119Z,2.19
2017-12-13T02:06:21.670Z,2.18
2017-12-13T02:07:02.267Z,2.09
2017-12-13T02:07:42.824Z,2.12
2017-12-13T02:08:23.375Z,2.14
2017-12-13T02:09:03.956Z,2.19
2017-12-13T02:09:44.575Z,2.15
2017-12-13T02:10:25.151Z,2.19
2017-12-13T02:11:05.692Z,2.15
2017-12-13T02:11:46.236Z,2.19
2017-12-13T02:12:26.686Z,2.27
2017-12-13T02:13:07.271Z,2.26
2017-12-13T02:13:50.660Z,2.26
2017-12-13T02:14:31.248Z,2.19
2017-12-13T02:15:12.625Z,2.29
2017-12-13T02:15:53.212Z,2.22
2017-12-13T02:16:35.479Z,2.23
2017-12-13T02:17:15.592Z,2.25
2017-12-13T02:17:58.255Z,2.26
2017-12-13T02:18:38.935Z,2.29
2017-12-13T02:19:19.500Z,2.25
2017-12-13T02:20:00.010Z,2.29
2017-12-13T02:20:40.569Z,2.37
2017-12-13T02:21:21.330Z,2.38
2017-12-13T02:25:32.401Z,2.45
2017-12-13T02:27:59.802Z,2.51
2017-12-13T02:28:39.386Z,2.48
2017-12-13T02:29:19.772Z,2.45
2017-12-13T02:30:00.218Z,2.5
2017-12-13T02:30:40.558Z,2.51
2017-12-13T02:31:21.074Z,2.56
2017-12-13T02:32:01.453Z,2.58
2017-12-13T02:32:41.957Z,2.61
2017-12-13T02:33:22.313Z,2.62
2017-12-13T02:34:02.748Z,2.55
2017-12-13T02:34:43.200Z,2.65
2017-12-13T02:35:23.562Z,2.56
2017-12-13T02:36:03.985Z,2.59
2017-12-13T02:36:44.369Z,2.66
2017-12-13T02:37:25.031Z,2.65
2017-12-13T02:38:05.696Z,2.58
2017-12-13T02:38:46.184Z,2.61
2017-12-13T02:39:26.418Z,2.59
2017-12-13T02:40:06.785Z,2.58
2017-12-13T02:40:47.173Z,2.59
2017-12-13T02:41:27.842Z,2.63
2017-12-13T02:42:08.303Z,2.61
2017-12-13T02:42:48.656Z,2.51
2017-12-13T02:43:29.035Z,2.53
2017-12-13T02:44:09.483Z,2.5
2017-12-13T02:44:49.923Z,2.56
2017-12-13T02:45:30.310Z,2.59
2017-12-13T02:46:10.784Z,2.58
2017-12-13T02:46:51.952Z,2.63
2017-12-13T02:47:32.266Z,2.65
2017-12-13T02:48:12.720Z,2.68
2017-12-13T02:48:53.082Z,2.63
2017-12-13T02:49:33.849Z,2.68
2017-12-13T02:50:14.000Z,2.65
2017-12-13T02:50:54.440Z,2.65
2017-12-13T02:51:34.886Z,2.65
2017-12-13T02:52:15.324Z,2.69
2017-12-13T02:52:55.623Z,2.63
2017-12-13T02:53:36.203Z,2.65
2017-12-13T02:54:16.536Z,2.77
2017-12-13T02:54:56.882Z,2.71
2017-12-13T02:55:37.314Z,2.68
2017-12-13T02:56:17.686Z,2.77
2017-12-13T02:56:58.084Z,2.73
2017-12-13T02:57:38.917Z,2.77
2017-12-13T02:58:19.479Z,2.68
2017-12-13T02:58:59.828Z,2.73
2017-12-13T02:59:40.288Z,2.76
2017-12-13T03:00:20.695Z,2.79
2017-12-13T03:01:01.166Z,2.73
2017-12-13T03:01:41.753Z,2.8
2017-12-13T03:02:22.048Z,2.86
2017-12-13T03:03:02.884Z,2.83
2017-12-13T03:03:43.140Z,2.76
2017-12-13T03:04:23.506Z,2.8
2017-12-13T03:05:03.925Z,2.76
2017-12-13T03:05:44.337Z,2.76
2017-12-13T03:06:24.751Z,2.87
2017-12-13T03:07:05.506Z,2.89
2017-12-13T03:07:45.823Z,2.79
2017-12-13T03:08:26.311Z,2.81
2017-12-13T03:09:06.979Z,2.81
2017-12-13T03:09:47.172Z,2.8
2017-12-13T03:11:43.754Z,2.81
2017-12-13T03:12:36.240Z,2.95
2017-12-13T03:13:23.658Z,2.86
2017-12-13T03:14:06.913Z,2.79
2017-12-13T03:14:47.249Z,2.86
2017-12-13T03:15:27.596Z,2.84
2017-12-13T03:16:08.274Z,2.86
2017-12-13T03:16:48.732Z,2.81
2017-12-13T03:17:29.232Z,2.76
2017-12-13T03:18:09.916Z,2.73
2017-12-13T03:18:50.259Z,2.66
2017-12-13T03:19:30.588Z,2.65
2017-12-13T03:20:11.395Z,2.68
2017-12-13T03:20:51.560Z,2.63
2017-12-13T03:21:31.962Z,2.69
2017-12-13T03:22:12.345Z,2.63
2017-12-13T03:22:52.995Z,2.63
2017-12-13T03:23:33.478Z,2.59
2017-12-13T03:24:13.928Z,2.5
2017-12-13T03:24:54.419Z,2.47
2017-12-13T03:25:34.693Z,2.53
2017-12-13T03:26:15.111Z,2.5
2017-12-13T03:26:55.521Z,2.55
2017-12-13T03:27:36.447Z,2.53
2017-12-13T03:28:16.499Z,2.56
2017-12-13T03:28:57.023Z,2.53
2017-12-13T03:30:46.350Z,2.58
2017-12-13T03:31:36.516Z,2.58
2017-12-13T03:32:15.573Z,2.61
2017-12-13T03:32:55.927Z,2.61
2017-12-13T03:33:36.398Z,2.66
2017-12-13T03:34:16.819Z,2.66
2017-12-13T03:34:57.496Z,2.63
2017-12-13T03:35:38.096Z,2.62
2017-12-13T03:36:18.332Z,2.68
2017-12-13T03:36:58.859Z,2.69
2017-12-13T03:37:39.242Z,2.73
2017-12-13T03:38:19.806Z,2.71
2017-12-13T03:39:00.211Z,2.73
2017-12-13T03:39:40.624Z,2.79
2017-12-13T03:40:21.879Z,2.79
2017-12-13T03:41:02.306Z,2.77
2017-12-13T03:41:42.702Z,2.81
2017-12-13T03:42:23.119Z,2.83
2017-12-13T03:43:03.589Z,2.79
2017-12-13T03:43:43.857Z,2.95
2017-12-13T03:44:24.262Z,2.92
2017-12-13T03:45:04.655Z,2.87
2017-12-13T03:45:45.174Z,2.87
2017-12-13T03:46:25.467Z,2.86
2017-12-13T03:47:05.864Z,2.89
2017-12-13T03:47:46.236Z,2.89
2017-12-13T03:48:26.716Z,2.84
2017-12-13T03:49:07.232Z,2.86
2017-12-13T03:49:47.733Z,2.83
2017-12-13T03:50:28.129Z,2.97
2017-12-13T03:51:08.434Z,2.95
2017-12-13T03:51:48.836Z,2.94
2017-12-13T03:52:29.264Z,2.94
2017-12-13T03:53:09.776Z,2.97
2017-12-13T03:53:50.145Z,2.9
2017-12-13T03:54:30.486Z,2.83
2017-12-13T03:55:10.864Z,2.84
2017-12-13T03:55:51.337Z,2.9
2017-12-13T03:56:31.720Z,2.94
2017-12-13T03:57:12.131Z,2.97
2017-12-13T03:57:52.785Z,2.99
2017-12-13T03:58:33.127Z,2.95
2017-12-13T03:59:13.561Z,2.97
2017-12-13T03:59:54.001Z,2.97
2017-12-13T04:00:34.420Z,2.98
2017-12-13T04:01:14.834Z,2.98
2017-12-13T04:01:55.453Z,2.98
2017-12-13T04:41:57.518Z,2.48
2017-12-13T04:42:38.295Z,2.48
2017-12-13T04:43:18.696Z,2.5
2017-12-13T04:43:59.106Z,2.5
2017-12-13T04:46:12.172Z,2.51
2017-12-13T04:46:52.639Z,2.53
2017-12-13T04:47:32.970Z,2.48
2017-12-13T04:48:13.383Z,2.5
2017-12-13T04:48:53.821Z,2.61
2017-12-13T04:49:34.622Z,2.62
2017-12-13T04:50:14.987Z,2.66
2017-12-13T04:50:55.523Z,2.63
2017-12-13T04:51:35.829Z,2.62
2017-12-13T04:52:16.209Z,2.61
2017-12-13T04:52:56.853Z,2.69
2017-12-13T04:53:37.287Z,2.76
2017-12-13T04:54:17.638Z,2.81
2017-12-13T04:54:58.078Z,2.92
2017-12-13T04:55:38.506Z,2.87
2017-12-13T04:56:18.894Z,2.97
2017-12-13T04:56:59.445Z,2.98
2017-12-13T04:57:39.722Z,3.05
2017-12-13T04:58:20.135Z,2.98
2017-12-13T04:59:00.568Z,3.13
2017-12-13T04:59:40.979Z,3.23
2017-12-13T05:00:21.389Z,3.2
2017-12-13T05:01:02.566Z,3.28
2017-12-13T05:01:42.976Z,3.28
2017-12-13T05:02:24.463Z,3.31
2017-12-13T05:03:04.474Z,3.39
2017-12-13T05:03:44.886Z,3.37
2017-12-13T05:04:25.301Z,3.41
2017-12-13T05:05:05.690Z,3.57
2017-12-13T05:05:46.145Z,3.49
2017-12-13T05:06:26.554Z,3.59
2017-12-13T05:07:07.204Z,3.67
2017-12-13T05:07:47.550Z,3.8
2017-12-13T05:08:27.887Z,3.78
2017-12-13T05:09:09.107Z,3.84
2017-12-13T05:09:49.127Z,4
2017-12-13T05:10:29.583Z,4.06
2017-12-13T05:11:10.428Z,4.08
2017-12-13T05:11:51.116Z,4.11
2017-12-13T05:12:31.411Z,4.17
2017-12-13T05:13:11.789Z,4.18
2017-12-13T05:13:52.547Z,4.11
2017-12-13T05:14:33.243Z,4.2
2017-12-13T05:15:13.670Z,4.24
2017-12-13T05:15:54.005Z,4.13
2017-12-13T05:16:34.423Z,4.17
2017-12-13T05:17:14.816Z,4.18
2017-12-13T05:17:55.224Z,4.17
2017-12-13T05:18:35.747Z,4.26
2017-12-13T05:19:16.108Z,4.25
2017-12-13T05:19:57.437Z,4.17
2017-12-13T05:20:37.869Z,4.2
2017-12-13T05:21:18.231Z,4.2
2017-12-13T05:23:00.745Z,4.18
2017-12-13T05:23:51.197Z,4.2
2017-12-13T05:24:38.693Z,4.35
2017-12-13T05:25:30.133Z,4.31
2017-12-13T05:27:08.339Z,4.36
2017-12-13T05:30:38.475Z,4.42
2017-12-13T05:31:19.979Z,4.36
2017-12-13T05:31:59.278Z,4.26
2017-12-13T05:32:40.063Z,4.29
2017-12-13T05:33:20.452Z,4.34
2017-12-13T05:34:00.846Z,4.34
2017-12-13T05:34:41.235Z,4.46
2017-12-13T05:35:21.845Z,4.46
2017-12-13T05:36:02.312Z,4.42
2017-12-13T05:36:43.010Z,4.54
2017-12-13T05:37:23.043Z,4.54
2017-12-13T05:38:03.435Z,4.53
2017-12-13T05:38:43.839Z,4.56
2017-12-13T05:39:24.381Z,4.56
2017-12-13T05:40:04.673Z,4.62
2017-12-13T05:40:45.123Z,4.57
2017-12-13T05:41:25.555Z,4.56
2017-12-13T05:42:05.963Z,4.68
2017-12-13T05:42:46.392Z,4.62
2017-12-13T05:43:26.904Z,4.54
2017-12-13T05:44:07.189Z,4.59
2017-12-13T05:44:47.597Z,4.51
2017-12-13T05:45:28.152Z,4.56
2017-12-13T05:46:08.551Z,4.59
2017-12-13T05:46:48.983Z,4.51
2017-12-13T05:47:29.353Z,4.49
2017-12-13T05:48:09.775Z,4.54
2017-12-13T05:48:50.143Z,4.53
2017-12-13T05:49:30.550Z,4.56
2017-12-13T05:50:10.985Z,4.5
2017-12-13T05:50:51.408Z,4.44
2017-12-13T05:51:31.841Z,4.49
2017-12-13T05:52:12.444Z,4.54
2017-12-13T05:52:52.721Z,4.49
2017-12-13T05:54:55.064Z,4.5
2017-12-13T05:55:38.301Z,4.53
2017-12-13T05:56:18.379Z,4.42
2017-12-13T05:56:58.729Z,4.38
2017-12-13T05:57:39.666Z,4.44
2017-12-13T05:58:20.753Z,4.42
2017-12-13T05:59:02.053Z,4.43
2017-12-13T05:59:42.594Z,4.46
2017-12-13T06:00:24.350Z,4.32
2017-12-13T06:01:04.503Z,4.31
2017-12-13T06:01:44.885Z,4.32
2017-12-13T06:02:25.397Z,4.29
2017-12-13T06:03:05.742Z,4.29
2017-12-13T06:03:46.160Z,4.34
2017-12-13T06:04:26.549Z,4.28
2017-12-13T06:05:06.929Z,4.34
2017-12-13T06:05:47.384Z,4.29
2017-12-13T06:06:27.784Z,4.36
2017-12-13T06:07:08.220Z,4.35
2017-12-13T06:07:48.643Z,4.32
2017-12-13T06:08:29.020Z,4.34
2017-12-13T06:09:09.354Z,4.32
2017-12-13T06:09:50.012Z,4.29
2017-12-13T06:10:30.380Z,4.42
2017-12-13T06:11:10.745Z,4.47
2017-12-13T06:11:51.227Z,4.49
2017-12-13T06:12:31.538Z,4.54
2017-12-13T06:13:11.939Z,4.57
2017-12-13T06:13:52.325Z,4.54
2017-12-13T06:14:32.757Z,4.62
2017-12-13T06:15:13.129Z,4.62
2017-12-13T06:15:53.651Z,4.59
2017-12-13T06:16:34.061Z,4.53
2017-12-13T06:17:14.480Z,4.57
2017-12-13T06:17:54.865Z,4.53
2017-12-13T06:18:35.233Z,4.56
2017-12-13T06:19:15.673Z,4.57
2017-12-13T06:19:56.003Z,4.46
2017-12-13T06:20:36.437Z,4.51
2017-12-13T06:21:16.824Z,4.56
2017-12-13T06:21:57.227Z,4.62
2017-12-13T06:22:37.568Z,4.56
2017-12-13T06:23:18.021Z,4.59
2017-12-13T06:23:58.373Z,4.61
2017-12-13T06:24:39.045Z,4.64
2017-12-13T06:25:19.898Z,4.56
2017-12-13T06:26:00.469Z,4.64
2017-12-13T06:26:40.819Z,4.62
2017-12-13T06:27:21.373Z,4.61
2017-12-13T06:28:01.869Z,4.67
2017-12-13T06:28:42.448Z,4.51
2017-12-13T06:29:22.986Z,4.61
2017-12-13T06:30:03.456Z,4.53
2017-12-13T06:30:43.773Z,4.61
2017-12-13T06:31:24.194Z,4.62
2017-12-13T06:32:04.857Z,4.65
2017-12-13T06:32:44.972Z,4.68
2017-12-13T06:33:25.369Z,4.57
2017-12-13T06:34:05.743Z,4.62
2017-12-13T06:34:46.118Z,4.61
2017-12-13T06:35:26.534Z,4.61
2017-12-13T06:36:07.027Z,4.61
2017-12-13T06:36:47.382Z,4.64
2017-12-13T06:37:27.815Z,4.61
2017-12-13T06:38:08.144Z,4.62
2017-12-13T06:38:48.542Z,4.61
2017-12-13T06:39:29.133Z,4.65
2017-12-13T06:40:09.510Z,4.57
2017-12-13T06:40:49.875Z,4.53
2017-12-13T06:41:30.260Z,4.65
2017-12-13T06:42:10.668Z,4.53
2017-12-13T06:42:51.023Z,4.57
2017-12-13T06:43:31.578Z,4.49
2017-12-13T06:44:11.973Z,4.54
2017-12-13T06:44:53.515Z,4.65
2017-12-13T06:45:34.059Z,4.53
2017-12-13T06:46:16.343Z,4.62
2017-12-13T06:46:57.146Z,4.65
2017-12-13T06:47:38.162Z,4.68
2017-12-13T06:48:18.554Z,4.62
2017-12-13T06:48:59.060Z,4.61
2017-12-13T06:49:39.703Z,4.51
2017-12-13T06:50:20.144Z,4.62
2017-12-13T06:51:00.683Z,4.56
2017-12-13T06:51:41.026Z,4.54
2017-12-13T06:52:21.504Z,4.56
2017-12-13T06:53:01.935Z,4.46
2017-12-13T06:53:57.356Z,4.46
2017-12-13T06:54:37.754Z,4.5
2017-12-13T06:55:18.206Z,4.56
2017-12-13T06:55:58.510Z,4.47
2017-12-13T06:56:38.969Z,4.47
2017-12-13T06:57:19.386Z,4.38
2017-12-13T06:57:59.961Z,4.35
2017-12-13T06:58:40.288Z,4.43
2017-12-13T06:59:20.708Z,4.44
2017-12-13T07:00:01.157Z,4.46
2017-12-13T07:00:41.476Z,4.46
2017-12-13T07:01:21.933Z,4.49
2017-12-13T07:02:02.347Z,4.61
2017-12-13T07:02:42.839Z,4.5
2017-12-13T07:03:23.245Z,4.61
2017-12-13T07:04:03.645Z,4.64
2017-12-13T07:04:44.174Z,4.59
2017-12-13T07:05:24.570Z,4.57
2017-12-13T07:06:05.053Z,4.56
2017-12-13T07:06:45.551Z,4.65
2017-12-13T07:07:25.918Z,4.68
2017-12-13T07:08:06.385Z,4.77
2017-12-13T07:08:48.144Z,4.74
2017-12-13T07:09:28.736Z,4.77
2017-12-13T07:10:10.094Z,4.74
2017-12-13T07:10:51.205Z,4.79
2017-12-13T07:11:31.713Z,4.79
2017-12-13T07:12:13.082Z,4.74
2017-12-13T07:12:53.448Z,4.88
2017-12-13T07:13:33.843Z,4.94
2017-12-13T07:14:14.614Z,4.96
2017-12-13T07:14:56.082Z,4.87
2017-12-13T07:15:36.260Z,4.93
2017-12-13T07:16:17.270Z,4.88
2017-12-13T07:16:58.609Z,4.88
2017-12-13T07:17:38.603Z,4.94
2017-12-13T07:18:19.412Z,4.9
2017-12-13T07:18:59.764Z,4.91
2017-12-13T07:19:40.148Z,4.86
2017-12-13T07:20:20.792Z,4.99
2017-12-13T07:21:01.161Z,5.05
2017-12-13T07:21:41.576Z,5.06
2017-12-13T07:22:22.038Z,5.02
2017-12-13T07:23:02.469Z,5.11
2017-12-13T07:24:58.215Z,5.09
2017-12-13T07:25:38.966Z,5.01
2017-12-13T07:26:19.341Z,5.05
2017-12-13T07:26:59.785Z,5.04
2017-12-13T07:27:40.179Z,5.08
2017-12-13T07:28:20.600Z,5.08
2017-12-13T07:29:01.005Z,5.19
2017-12-13T07:29:41.360Z,5.04
2017-12-13T07:30:21.779Z,5.06
2017-12-13T07:31:02.355Z,5.09
2017-12-13T07:31:42.795Z,5.06
2017-12-13T07:32:23.191Z,5.02
2017-12-13T07:33:03.565Z,5.06
2017-12-13T07:33:43.954Z,4.96
2017-12-13T07:34:24.392Z,4.9
2017-12-13T07:35:04.891Z,4.91
2017-12-13T07:35:45.242Z,4.88
2017-12-13T07:36:25.623Z,4.88
2017-12-13T07:37:06.062Z,4.84
2017-12-13T07:37:46.445Z,4.86
2017-12-13T07:38:26.884Z,4.87
2017-12-13T07:39:07.414Z,4.97
2017-12-13T07:39:47.829Z,4.86
2017-12-13T07:40:28.230Z,4.88
2017-12-13T07:41:08.812Z,4.87
2017-12-13T07:41:49.156Z,4.87
2017-12-13T07:42:29.645Z,4.91
2017-12-13T07:43:09.978Z,4.84
2017-12-13T07:43:50.449Z,4.91
2017-12-13T07:44:30.800Z,4.84
2017-12-13T07:45:11.191Z,4.8
2017-12-13T07:45:51.842Z,4.83
2017-12-13T07:46:32.206Z,4.84
2017-12-13T07:47:12.690Z,4.87
2017-12-13T07:47:53.251Z,4.86
2017-12-13T07:48:33.820Z,4.87
2017-12-13T07:49:14.529Z,4.87
2017-12-13T07:49:55.054Z,4.8
2017-12-13T07:50:35.476Z,4.88
2017-12-13T07:51:15.963Z,4.93
2017-12-13T07:51:56.835Z,4.88
2017-12-13T07:52:37.398Z,4.87
2017-12-13T07:53:17.782Z,4.94
2017-12-13T07:53:58.625Z,4.94
2017-12-13T07:54:39.132Z,4.93
2017-12-13T07:55:19.693Z,4.91
2017-12-13T07:56:00.120Z,4.9
2017-12-13T07:56:40.709Z,4.93
2017-12-13T07:57:21.046Z,4.9
2017-12-13T07:58:02.450Z,4.97
2017-12-13T07:58:41.965Z,4.97
2017-12-13T07:59:22.498Z,5.05
2017-12-13T08:00:02.854Z,5.11
2017-12-13T08:00:43.505Z,5.05
2017-12-13T08:02:20.471Z,5.09
2017-12-13T08:04:02.216Z,5.12
2017-12-13T08:04:45.707Z,5.06
2017-12-13T08:05:26.652Z,5.09
2017-12-13T08:06:07.716Z,5.17
2017-12-13T08:06:48.397Z,5.23
2017-12-13T08:07:28.987Z,5.12
2017-12-13T08:08:10.123Z,5.22
2017-12-13T08:08:50.216Z,5.23
2017-12-13T08:09:30.748Z,5.27
2017-12-13T08:10:11.571Z,5.23
2017-12-13T08:10:53.133Z,5.29
2017-12-13T08:11:33.414Z,5.23
2017-12-13T08:12:13.958Z,5.26
2017-12-13T08:12:55.167Z,5.24
2017-12-13T08:13:35.746Z,5.24
2017-12-13T08:14:16.570Z,5.27
2017-12-13T08:14:59.966Z,5.29
2017-12-13T08:15:40.363Z,5.27
2017-12-13T08:16:21.034Z,5.29
2017-12-13T08:17:02.582Z,5.3
2017-12-13T08:17:43.330Z,5.24
2017-12-13T08:18:25.713Z,5.3
2017-12-13T08:19:05.890Z,5.26
2017-12-13T08:19:48.085Z,5.26
2017-12-13T08:20:28.518Z,5.26
2017-12-13T08:21:09.072Z,5.27
2017-12-13T08:21:50.617Z,5.32
2017-12-13T08:22:31.253Z,5.24
2017-12-13T08:23:12.639Z,5.32
2017-12-13T08:23:53.215Z,5.27
2017-12-13T08:24:33.829Z,5.23
2017-12-13T08:25:15.171Z,5.24
2017-12-13T08:25:55.362Z,5.26
2017-12-13T08:26:36.650Z,5.15
2017-12-13T08:27:16.735Z,5.24
2017-12-13T08:27:57.661Z,5.26
2017-12-13T08:28:38.424Z,5.19
2017-12-13T08:29:19.093Z,5.22
2017-12-13T08:29:59.757Z,5.27
2017-12-13T08:30:40.252Z,5.29
2017-12-13T08:31:21.847Z,5.32
2017-12-13T08:32:02.355Z,5.2
2017-12-13T08:32:43.109Z,5.3
2017-12-13T08:33:23.703Z,5.27
2017-12-13T08:34:04.216Z,5.3
2017-12-13T08:34:45.635Z,5.37
2017-12-13T08:35:26.680Z,5.42
2017-12-13T08:36:06.304Z,5.4
2017-12-13T08:36:46.705Z,5.4
2017-12-13T08:37:27.150Z,5.44
2017-12-13T08:38:07.725Z,5.42
2017-12-13T08:38:48.171Z,5.4
2017-12-13T08:39:29.165Z,5.42
2017-12-13T08:40:09.463Z,5.55
2017-12-13T08:40:49.898Z,5.37
2017-12-13T08:41:30.390Z,5.44
2017-12-13T08:42:10.952Z,5.49
2017-12-13T08:42:51.289Z,5.49
2017-12-13T08:43:31.690Z,5.58
2017-12-13T08:44:14.136Z,5.49
2017-12-13T08:44:54.413Z,5.49
2017-12-13T08:45:34.651Z,5.45
2017-12-13T08:46:15.227Z,5.52
2017-12-13T08:46:56.194Z,5.58
2017-12-13T08:47:36.792Z,5.49
2017-12-13T08:48:17.818Z,5.55
2017-12-13T08:48:59.303Z,5.63
2017-12-13T08:49:40.369Z,5.62
2017-12-13T08:50:21.655Z,5.67
2017-12-13T08:51:02.644Z,5.65
2017-12-13T08:51:43.646Z,5.7
2017-12-13T08:52:25.290Z,5.7
2017-12-13T08:53:06.234Z,5.65
2017-12-13T08:53:47.201Z,5.67
2017-12-13T08:54:29.572Z,5.65
2017-12-13T08:55:10.824Z,5.69
2017-12-13T08:55:52.213Z,5.65
2017-12-13T08:56:33.639Z,5.67
2017-12-13T08:57:13.665Z,5.74
2017-12-13T08:57:55.286Z,5.77
2017-12-13T08:58:36.181Z,5.84
2017-12-13T08:59:18.137Z,5.81
2017-12-13T08:59:58.222Z,5.84
2017-12-13T09:00:38.935Z,5.87
2017-12-13T09:01:19.538Z,5.88
2017-12-13T09:02:00.634Z,5.9
2017-12-13T09:02:41.370Z,5.9
2017-12-13T09:03:22.313Z,5.92
2017-12-13T09:04:03.828Z,5.88
2017-12-13T09:04:44.313Z,5.9
2017-12-13T09:05:25.646Z,5.92
2017-12-13T09:06:06.574Z,5.95
2017-12-13T09:06:47.082Z,5.95
2017-12-13T09:07:27.858Z,6.02
2017-12-13T09:08:08.337Z,5.98
2017-12-13T09:08:48.800Z,5.99
2017-12-13T09:09:29.147Z,6.03
2017-12-13T09:11:28.899Z,6.08
2017-12-13T09:12:14.792Z,6.05
2017-12-13T09:12:55.198Z,6.08
2017-12-13T09:13:36.753Z,6.02
2017-12-13T09:14:17.471Z,6.03
2017-12-13T09:14:59.013Z,5.98
2017-12-13T09:15:40.209Z,6.03
2017-12-13T09:16:21.317Z,6.05
2017-12-13T09:17:01.614Z,6.08
2017-12-13T09:17:44.696Z,6.02
2017-12-13T09:18:24.705Z,6.03
2017-12-13T09:19:06.240Z,6.01
2017-12-13T09:19:48.631Z,5.99
2017-12-13T09:20:29.035Z,6.05
2017-12-13T09:21:10.427Z,6.02
2017-12-13T09:21:51.298Z,5.98
2017-12-13T09:22:31.649Z,6.02
2017-12-13T09:23:15.311Z,6.01
2017-12-13T09:23:55.793Z,5.99
2017-12-13T09:24:36.362Z,5.99
2017-12-13T09:25:17.333Z,6.01
2017-12-13T09:25:58.657Z,5.99
2017-12-13T09:26:38.896Z,6.02
2017-12-13T09:27:19.527Z,5.99
2017-12-13T09:28:00.511Z,6.01
2017-12-13T09:28:49.364Z,5.92
2017-12-13T09:31:24.217Z,5.93
2017-12-13T09:32:06.083Z,5.87
2017-12-13T09:32:46.503Z,5.85
2017-12-13T09:33:27.105Z,5.88
2017-12-13T09:34:07.714Z,5.87
2017-12-13T09:34:48.408Z,5.88
2017-12-13T09:35:28.876Z,5.87
2017-12-13T09:36:09.303Z,5.92
2017-12-13T09:36:50.442Z,5.9
2017-12-13T09:37:30.787Z,5.9
2017-12-13T09:38:11.175Z,5.9
2017-12-13T09:38:51.522Z,5.93
2017-12-13T09:39:31.948Z,5.9
2017-12-13T09:40:12.376Z,5.96
2017-12-13T09:40:52.766Z,6.01
2017-12-13T09:41:33.150Z,5.9
2017-12-13T09:42:13.664Z,5.98
2017-12-13T09:42:54.298Z,5.93
2017-12-13T09:43:35.330Z,5.9
2017-12-13T09:44:15.725Z,5.96
2017-12-13T09:44:56.088Z,5.87
2017-12-13T09:45:36.526Z,5.96
2017-12-13T09:46:16.923Z,5.96
2017-12-13T09:46:57.388Z,5.87
2017-12-13T09:47:37.752Z,5.99
2017-12-13T09:48:18.395Z,5.85
2017-12-13T09:48:58.789Z,5.88
2017-12-13T09:49:39.191Z,5.99
2017-12-13T09:50:19.713Z,6.02
2017-12-13T09:51:00.140Z,5.98
2017-12-13T09:51:40.687Z,6.06
2017-12-13T09:52:21.991Z,5.96
2017-12-13T09:53:01.531Z,6.05
2017-12-13T09:53:41.895Z,6.02
2017-12-13T09:54:22.371Z,6.1
2017-12-13T09:55:03.114Z,5.92
2017-12-13T09:55:43.820Z,5.92
2017-12-13T09:56:24.153Z,5.93
2017-12-13T09:57:04.660Z,6.01
2017-12-13T09:57:45.200Z,5.99
2017-12-13T09:58:25.805Z,5.96
2017-12-13T09:59:06.229Z,5.96
2017-12-13T09:59:46.632Z,5.98
2017-12-13T10:00:27.999Z,5.99
2017-12-13T10:01:07.867Z,5.9
2017-12-13T10:01:48.224Z,5.99
2017-12-13T10:02:29.706Z,5.96
2017-12-13T10:03:11.807Z,5.93
2017-12-13T10:03:53.593Z,5.98
2017-12-13T10:41:28.921Z,5.33
2017-12-13T10:42:09.545Z,5.3
2017-12-13T10:42:49.941Z,5.35
2017-12-13T10:43:30.366Z,5.27